createdAt,value
2019-04-11T00:00:53.260Z,6.03
2019-04-11T00:03:25.146Z,5.80
2019-04-11T00:05:57.131Z,4.93
2019-04-11T00:08:30.103Z,5.00
2019-04-11T00:11:02.243Z,5.80
2019-04-11T00:13:36.263Z,4.60
2019-04-11T00:16:08.833Z,4.50
2019-04-11T00:18:41.004Z,5.60
2019-04-11T00:21:12.929Z,5.73
2019-04-11T00:23:44.763Z,5.50
2019-04-11T00:26:16.488Z,6.10
2019-04-11T00:28:48.369Z,5.07
2019-04-11T00:31:20.973Z,5.80
2019-04-11T00:33:54.192Z,5.40
2019-04-11T00:36:26.003Z,5.90
2019-04-11T00:38:57.754Z,5.10
2019-04-11T00:41:30.806Z,5.40
2019-04-11T00:44:03.194Z,5.60
2019-04-11T00:46:34.916Z,5.40
2019-04-11T00:49:06.848Z,4.40
2019-04-11T00:51:38.585Z,5.90
2019-04-11T00:54:10.839Z,4.87
2019-04-11T00:56:42.761Z,4.97
2019-04-11T00:59:14.604Z,4.80
2019-04-11T01:01:47.103Z,5.73
2019-04-11T01:04:19.940Z,4.90
2019-04-11T01:06:52.227Z,4.57
2019-04-11T01:09:24.326Z,5.87
2019-04-11T01:11:56.335Z,4.77
2019-04-11T01:14:28.230Z,5.60
2019-04-11T01:17:01.029Z,4.20
2019-04-11T01:19:33.054Z,5.07
2019-04-11T01:22:05.639Z,5.33
2019-04-11T01:24:37.791Z,5.13
2019-04-11T01:27:09.861Z,4.40
2019-04-11T01:29:42.017Z,4.67
2019-04-11T01:32:13.942Z,5.53
2019-04-11T01:34:45.744Z,5.10
2019-04-11T01:37:17.661Z,5.63
2019-04-11T01:40:01.350Z,4.80
2019-04-11T01:42:33.546Z,5.40
2019-04-11T01:45:05.938Z,5.07
2019-04-11T01:47:53.264Z,5.20
2019-04-11T01:50:29.264Z,4.77
2019-04-11T01:53:02.522Z,3.93
2019-04-11T01:55:34.757Z,5.27
2019-04-11T01:58:06.764Z,5.37
2019-04-11T02:01:10.528Z,4.83
2019-04-11T02:03:49.759Z,5.10
2019-04-11T02:06:21.781Z,5.30
2019-04-11T02:08:53.497Z,5.60
2019-04-11T02:11:25.628Z,3.90
2019-04-11T02:14:09.865Z,5.20
2019-04-11T02:16:31.403Z,5.53
2019-04-11T02:19:03.684Z,4.60
2019-04-11T02:21:35.947Z,5.00
2019-04-11T02:24:20.202Z,4.97
2019-04-11T02:27:02.998Z,4.83
2019-04-11T02:29:35.461Z,5.80
2019-04-11T02:32:07.642Z,5.53
2019-04-11T02:34:39.855Z,5.17
2019-04-11T02:37:13.466Z,4.33
2019-04-11T02:39:47.133Z,5.30
2019-04-11T02:42:21.209Z,4.37
2019-04-11T02:45:09.136Z,5.70
2019-04-11T02:47:30.933Z,5.57
2019-04-11T02:50:00.893Z,4.93
2019-04-11T02:52:33.526Z,4.50
2019-04-11T02:55:07.824Z,4.97
2019-04-11T02:57:40.870Z,5.73
2019-04-11T03:00:15.709Z,4.73
2019-04-11T03:02:48.082Z,4.90
2019-04-11T03:05:21.571Z,4.77
2019-04-11T03:07:54.090Z,4.73
2019-04-11T03:10:27.102Z,5.30
2019-04-11T03:13:00.768Z,5.40
2019-04-11T03:15:48.832Z,4.10
2019-04-11T03:18:09.994Z,4.23
2019-04-11T03:20:48.334Z,4.37
2019-04-11T03:23:18.650Z,4.97
2019-04-11T03:25:49.330Z,4.87
2019-04-11T03:28:27.056Z,4.87
2019-04-11T03:31:26.606Z,4.57
2019-04-11T03:34:25.346Z,4.63
2019-04-11T03:39:01.450Z,5.10
2019-04-11T03:41:26.749Z,5.27
2019-04-11T03:43:53.946Z,4.50
2019-04-11T03:46:34.031Z,5.10
2019-04-11T03:49:01.266Z,3.67
2019-04-11T03:51:27.640Z,5.23
2019-04-11T03:54:01.063Z,4.50
2019-04-11T03:56:33.562Z,4.93
2019-04-11T03:59:08.465Z,4.23
2019-04-11T04:01:42.341Z,4.90
2019-04-11T04:04:15.476Z,4.93
2019-04-11T04:06:49.780Z,4.20
2019-04-11T04:09:23.789Z,4.60
2019-04-11T04:11:56.971Z,4.13
2019-04-11T04:14:54.809Z,3.00
2019-04-11T04:17:59.784Z,4.50
2019-04-11T04:20:46.099Z,3.40
2019-04-11T04:23:31.509Z,4.50
2019-04-11T04:26:06.154Z,4.13
2019-04-11T04:28:38.681Z,4.00
2019-04-11T04:31:11.725Z,4.37
2019-04-11T04:33:45.468Z,3.93
2019-04-11T04:36:18.340Z,5.10
2019-04-11T04:38:50.548Z,4.03
2019-04-11T04:41:33.451Z,3.97
2019-04-11T04:43:59.381Z,4.40
2019-04-11T04:46:48.687Z,3.80
2019-04-11T04:49:06.968Z,4.07
2019-04-11T04:51:39.124Z,3.33
2019-04-11T04:54:12.116Z,3.13
2019-04-11T04:56:45.993Z,3.60
2019-04-11T04:59:19.312Z,3.40
2019-04-11T05:01:53.061Z,3.40
2019-04-11T05:04:25.025Z,3.77
2019-04-11T05:06:56.897Z,3.63
2019-04-11T05:09:29.901Z,4.13
2019-04-11T05:12:03.370Z,3.83
2019-04-11T05:14:37.116Z,3.57
2019-04-11T05:17:09.164Z,4.57
2019-04-11T05:19:40.893Z,3.83
2019-04-11T05:22:12.658Z,3.80
2019-04-11T05:24:45.398Z,3.20
2019-04-11T05:27:17.439Z,4.10
2019-04-11T05:29:49.544Z,3.70
2019-04-11T05:32:21.914Z,3.60
2019-04-11T05:34:53.793Z,3.87
2019-04-11T05:37:25.590Z,3.67
2019-04-11T05:39:57.397Z,3.23
2019-04-11T05:42:29.283Z,3.90
2019-04-11T05:45:01.145Z,3.80
2019-04-11T05:47:32.883Z,3.67
2019-04-11T05:50:13.770Z,3.53
2019-04-11T05:52:46.193Z,3.37
2019-04-11T05:55:18.033Z,4.60
2019-04-11T05:57:50.231Z,4.30
2019-04-11T06:00:39.097Z,5.10
2019-04-11T06:03:10.887Z,3.90
2019-04-11T06:06:05.093Z,4.53
2019-04-11T06:08:37.835Z,4.73
2019-04-11T06:11:30.543Z,5.23
2019-04-11T06:14:22.837Z,5.27
2019-04-11T06:16:59.017Z,4.47
2019-04-11T06:19:53.574Z,3.53
2019-04-11T06:22:25.663Z,5.07
2019-04-11T06:25:25.891Z,6.43
2019-04-11T06:28:04.119Z,4.50
2019-04-11T06:30:54.792Z,4.43
2019-04-11T06:33:32.585Z,4.33
2019-04-11T06:36:28.084Z,5.43
2019-04-11T06:39:09.269Z,4.60
2019-04-11T06:41:59.540Z,4.37
2019-04-11T06:44:50.169Z,4.53
2019-04-11T06:47:45.098Z,4.50
2019-04-11T06:50:22.887Z,5.17
2019-04-11T06:52:54.984Z,4.37
2019-04-11T06:55:46.819Z,4.90
2019-04-11T06:58:23.427Z,3.10
2019-04-11T07:00:59.772Z,4.23
2019-04-11T07:03:36.289Z,3.60
2019-04-11T07:06:15.413Z,3.30
2019-04-11T07:08:54.699Z,3.80
2019-04-11T07:11:36.191Z,3.30
2019-04-11T07:14:39.816Z,3.20
2019-04-11T07:17:29.835Z,3.23
2019-04-11T07:20:14.896Z,3.40
2019-04-11T07:23:05.882Z,3.30
2019-04-11T07:25:45.492Z,3.20
2019-04-11T07:28:25.469Z,3.60
2019-04-11T07:31:15.601Z,3.07
2019-04-11T07:34:17.083Z,2.77
2019-04-11T07:37:07.340Z,3.50
2019-04-11T07:39:58.578Z,3.13
2019-04-11T07:42:39.210Z,2.70
2019-04-11T07:45:15.787Z,2.93
2019-04-11T07:47:52.655Z,2.70
2019-04-11T07:50:24.931Z,3.40
2019-04-11T07:53:01.409Z,2.47
2019-04-11T07:55:34.409Z,2.60
2019-04-11T07:58:24.229Z,2.17
2019-04-11T08:01:27.670Z,3.23
2019-04-11T08:04:17.633Z,2.87
2019-04-11T08:07:02.147Z,2.70
2019-04-11T08:09:44.261Z,2.80
2019-04-11T08:12:21.733Z,3.00
2019-04-11T08:15:11.449Z,2.67
2019-04-11T08:17:44.484Z,2.50
2019-04-11T08:20:39.568Z,2.37
2019-04-11T08:23:11.712Z,2.30
2019-04-11T08:25:55.809Z,2.23
2019-04-11T08:28:28.871Z,1.80
2019-04-11T08:31:26.452Z,1.97
2019-04-11T08:34:00.931Z,2.07
2019-04-11T08:36:50.652Z,2.33
2019-04-11T08:39:29.487Z,2.47
2019-04-11T08:42:17.157Z,2.10
2019-04-11T08:44:50.125Z,2.40
2019-04-11T08:47:22.529Z,2.30
2019-04-11T08:49:57.003Z,2.27
2019-04-11T08:53:04.488Z,1.50
2019-04-11T08:55:48.810Z,2.20
2019-04-11T08:58:38.462Z,2.27
2019-04-11T09:01:12.102Z,2.50
2019-04-11T09:04:06.785Z,2.90
2019-04-11T09:06:37.229Z,2.80
2019-04-11T09:09:27.440Z,2.73
2019-04-11T09:12:02.480Z,2.37
2019-04-11T09:14:57.520Z,2.23
2019-04-11T09:17:33.137Z,2.07
2019-04-11T09:20:27.776Z,2.67
2019-04-11T09:23:05.731Z,1.97
2019-04-11T09:25:56.581Z,2.77
2019-04-11T09:28:33.980Z,2.30
2019-04-11T09:31:37.924Z,2.30
2019-04-11T09:34:42.007Z,1.90
2019-04-11T09:37:27.448Z,2.00
2019-04-11T09:40:19.685Z,2.40
2019-04-11T09:43:11.390Z,2.10
2019-04-11T09:46:02.029Z,1.57
2019-04-11T09:48:40.066Z,2.43
2019-04-11T09:51:23.465Z,1.63
2019-04-11T09:54:01.481Z,1.80
2019-04-11T09:56:58.075Z,1.50
2019-04-11T09:59:52.490Z,1.20
2019-04-11T10:02:42.214Z,1.60
2019-04-11T10:05:15.977Z,1.43
2019-04-11T10:08:14.742Z,1.70
2019-04-11T10:11:05.820Z,2.80
2019-04-11T10:13:53.660Z,2.03
2019-04-11T10:16:44.325Z,2.00
2019-04-11T10:19:22.456Z,1.57
2019-04-11T10:22:20.621Z,1.90
2019-04-11T10:25:12.867Z,1.53
2019-04-11T10:28:03.211Z,1.50
2019-04-11T10:30:53.702Z,1.67
2019-04-11T10:33:44.790Z,1.57
2019-04-11T10:36:31.571Z,1.20
2019-04-11T10:39:27.148Z,1.63
2019-04-11T10:42:02.223Z,1.73
2019-04-11T10:44:47.806Z,1.30
2019-04-11T10:47:22.817Z,1.30
2019-04-11T10:50:21.589Z,1.10
2019-04-11T10:52:58.547Z,0.90
2019-04-11T10:55:38.052Z,1.40
2019-04-11T10:58:16.553Z,1.30
2019-04-11T11:01:12.696Z,1.30
2019-04-11T11:03:51.387Z,1.20
2019-04-11T11:06:25.221Z,1.50
2019-04-11T11:09:06.000Z,1.97
2019-04-11T11:11:44.224Z,2.67
2019-04-11T11:14:52.407Z,1.57
2019-04-11T11:18:20.323Z,1.20
2019-04-11T11:20:41.551Z,1.10
2019-04-11T11:23:20.488Z,1.07
2019-04-11T11:26:12.652Z,1.47
2019-04-11T11:29:07.039Z,1.00
2019-04-11T11:31:47.668Z,1.00
2019-04-11T11:34:24.915Z,1.20
2019-04-11T11:37:20.673Z,1.30
2019-04-11T11:40:17.970Z,1.10
2019-04-11T11:43:06.627Z,1.40
2019-04-11T11:45:55.556Z,1.10
2019-04-11T11:48:33.397Z,1.30
2019-04-11T11:51:37.467Z,2.40
2019-04-11T11:54:18.062Z,1.33
2019-04-11T11:56:50.738Z,1.13
2019-04-11T11:59:30.721Z,0.90
2019-04-11T12:02:08.606Z,1.03
2019-04-11T12:04:46.479Z,1.00
2019-04-11T12:07:21.066Z,1.00
2019-04-11T12:10:11.493Z,1.40
2019-04-11T12:12:49.849Z,0.87
2019-04-11T12:15:45.609Z,1.10
2019-04-11T12:18:40.278Z,1.00
2019-04-11T12:21:13.520Z,1.07
2019-04-11T12:24:06.519Z,1.43
2019-04-11T12:26:45.580Z,2.07
2019-04-11T12:29:24.765Z,1.30
2019-04-11T12:31:57.725Z,1.13
2019-04-11T12:34:36.700Z,1.10
2019-04-11T12:37:14.823Z,1.30
2019-04-11T12:40:06.122Z,1.20
2019-04-11T12:42:39.077Z,1.37
2019-04-11T12:45:29.273Z,2.07
2019-04-11T12:48:02.221Z,1.33
2019-04-11T12:51:11.916Z,1.10
2019-04-11T12:53:45.096Z,1.33
2019-04-11T12:56:54.552Z,2.03
2019-04-11T12:59:28.267Z,1.20
2019-04-11T13:02:20.986Z,1.37
2019-04-11T13:04:52.784Z,1.10
2019-04-11T13:07:35.152Z,1.70
2019-04-11T13:10:29.560Z,1.43
2019-04-11T13:13:23.852Z,1.40
2019-04-11T13:16:11.315Z,1.67
2019-04-11T13:18:44.950Z,1.73
2019-04-11T13:21:23.371Z,1.80
2019-04-11T13:24:14.782Z,1.83
2019-04-11T13:27:04.969Z,1.73
2019-04-11T13:29:56.576Z,2.17
2019-04-11T13:32:33.152Z,2.23
2019-04-11T13:35:11.291Z,2.20
2019-04-11T13:38:03.719Z,3.10
2019-04-11T13:41:01.392Z,2.20
2019-04-11T13:43:37.437Z,2.47
2019-04-11T13:46:28.920Z,2.37
2019-04-11T13:49:07.980Z,1.70
2019-04-11T13:51:58.044Z,2.30
2019-04-11T13:54:51.040Z,1.97
2019-04-11T13:57:57.419Z,2.07
2019-04-11T14:00:48.834Z,2.00
2019-04-11T14:03:43.284Z,1.97
2019-04-11T14:06:18.245Z,2.27
2019-04-11T14:09:03.197Z,2.40
2019-04-11T14:11:36.527Z,3.33
2019-04-11T14:14:12.653Z,2.30
2019-04-11T14:16:59.895Z,3.03
2019-04-11T14:19:57.554Z,2.43
2019-04-11T14:22:34.612Z,2.27
2019-04-11T14:25:24.785Z,1.93
2019-04-11T14:27:58.731Z,2.30
2019-04-11T14:30:38.993Z,2.10
2019-04-11T14:33:10.745Z,1.87
2019-04-11T14:36:05.089Z,2.23
2019-04-11T14:38:45.548Z,1.97
2019-04-11T14:41:28.860Z,1.97
2019-04-11T14:44:02.221Z,1.90
2019-04-11T14:47:06.771Z,2.07
2019-04-11T14:49:40.562Z,2.17
2019-04-11T14:52:26.857Z,2.27
2019-04-11T14:55:00.752Z,2.10
2019-04-11T14:57:55.223Z,2.37
2019-04-11T15:00:32.526Z,2.00
2019-04-11T15:03:23.972Z,2.20
2019-04-11T15:06:03.592Z,2.37
2019-04-11T15:08:47.629Z,2.40
2019-04-11T15:11:30.450Z,2.07
2019-04-11T15:14:11.666Z,2.90
2019-04-11T15:17:03.164Z,2.03
2019-04-11T15:19:34.889Z,2.90
2019-04-11T15:22:22.327Z,2.83
2019-04-11T15:24:57.898Z,2.27
2019-04-11T15:27:57.696Z,1.97
2019-04-11T15:30:30.603Z,2.47
2019-04-11T15:33:21.165Z,2.63
2019-04-11T15:35:52.970Z,2.23
2019-04-11T15:38:46.721Z,2.57
2019-04-11T15:41:18.427Z,2.70
2019-04-11T15:44:08.648Z,2.47
2019-04-11T15:46:40.386Z,2.70
2019-04-11T15:49:37.744Z,2.57
2019-04-11T15:52:15.065Z,1.80
2019-04-11T15:55:05.467Z,2.20
2019-04-11T15:57:48.071Z,2.33
2019-04-11T16:00:43.896Z,1.93
2019-04-11T16:03:21.071Z,2.17
2019-04-11T16:06:11.189Z,2.50
2019-04-11T16:08:48.248Z,1.57
2019-04-11T16:11:31.590Z,2.10
2019-04-11T16:14:12.664Z,2.57
2019-04-11T16:17:13.739Z,2.10
2019-04-11T16:19:47.860Z,2.40
2019-04-11T16:22:47.630Z,2.43
2019-04-11T16:25:21.133Z,2.40
2019-04-11T16:28:12.542Z,2.10
2019-04-11T16:30:52.416Z,2.23
2019-04-11T16:33:30.700Z,2.10
2019-04-11T16:36:17.746Z,2.50
2019-04-11T16:38:57.053Z,2.17
2019-04-11T16:41:47.070Z,2.50
2019-04-11T16:44:25.029Z,2.27
2019-04-11T16:47:15.797Z,2.57
2019-04-11T16:49:47.572Z,2.07
2019-04-11T16:52:19.296Z,2.20
2019-04-11T16:54:51.010Z,2.67
2019-04-11T16:57:22.724Z,1.93
2019-04-11T16:59:54.557Z,2.60
2019-04-11T17:02:28.921Z,2.40
2019-04-11T17:04:59.952Z,2.53
2019-04-11T17:07:51.377Z,2.50
2019-04-11T17:10:42.764Z,2.70
2019-04-11T17:13:14.598Z,2.70
2019-04-11T17:15:46.309Z,2.50
2019-04-11T17:18:19.088Z,2.10
2019-04-11T17:20:50.980Z,2.57
2019-04-11T17:23:22.816Z,2.90
2019-04-11T17:25:54.528Z,3.00
2019-04-11T17:28:26.354Z,2.73
2019-04-11T17:30:58.181Z,2.97
2019-04-11T17:33:29.903Z,2.40
2019-04-11T17:36:02.718Z,2.37
2019-04-11T17:38:36.926Z,2.40
2019-04-11T17:41:11.038Z,2.57
2019-04-11T17:43:42.342Z,2.30
2019-04-11T17:46:15.782Z,2.43
2019-04-11T17:48:50.250Z,2.67
2019-04-11T17:51:21.348Z,2.60
2019-04-11T17:53:55.551Z,4.27
2019-04-11T17:56:26.677Z,2.90
2019-04-11T17:58:58.759Z,2.60
2019-04-11T18:01:33.418Z,2.40
2019-04-11T18:04:04.424Z,2.30
2019-04-11T18:06:36.156Z,2.40
2019-04-11T18:09:10.538Z,2.20
2019-04-11T18:11:42.364Z,2.63
2019-04-11T18:14:14.085Z,2.57
2019-04-11T18:16:45.805Z,2.70
2019-04-11T18:19:17.588Z,2.93
2019-04-11T18:21:49.493Z,3.00
2019-04-11T18:24:21.305Z,3.07
2019-04-11T18:26:53.020Z,2.80
2019-04-11T18:29:24.840Z,3.50
2019-04-11T18:31:56.545Z,3.10
2019-04-11T18:34:31.558Z,3.13
2019-04-11T18:37:02.702Z,3.20
2019-04-11T18:39:35.933Z,3.20
2019-04-11T18:42:08.532Z,3.40
2019-04-11T18:44:40.348Z,2.80
2019-04-11T18:47:12.180Z,3.43
2019-04-11T18:49:44.027Z,3.60
2019-04-11T18:52:19.837Z,3.57
2019-04-11T18:54:49.956Z,4.47
2019-04-11T18:57:21.901Z,4.03
2019-04-11T18:59:53.850Z,5.53
2019-04-11T19:02:25.838Z,5.97
2019-04-11T19:04:57.779Z,6.20
2019-04-11T19:07:29.550Z,6.30
2019-04-11T19:10:01.557Z,5.80
2019-04-11T19:12:33.538Z,5.83
2019-04-11T19:15:06.874Z,5.83
2019-04-11T19:17:38.855Z,5.20
2019-04-11T19:20:11.046Z,6.43
2019-04-11T19:22:42.833Z,6.50
2019-04-11T19:25:14.967Z,5.77
2019-04-11T19:27:50.536Z,5.73
2019-04-11T19:30:21.015Z,4.37
2019-04-11T19:32:53.245Z,5.20
2019-04-11T19:35:25.349Z,5.83
2019-04-11T19:37:58.098Z,4.93
2019-04-11T19:40:30.578Z,4.23
2019-04-11T19:43:02.733Z,4.43
2019-04-11T19:45:34.768Z,4.90
2019-04-11T19:48:06.582Z,4.93
2019-04-11T19:50:38.327Z,5.43
2019-04-11T19:53:10.050Z,5.17
2019-04-11T19:55:57.268Z,6.07
2019-04-11T19:58:29.827Z,6.87
2019-04-11T20:01:01.913Z,6.17
2019-04-11T20:03:33.800Z,6.63
2019-04-11T20:06:05.562Z,6.80
2019-04-11T20:08:37.272Z,6.43
2019-04-11T20:11:09.011Z,5.37
2019-04-11T20:13:40.736Z,6.10
2019-04-11T20:16:13.221Z,5.60
2019-04-11T20:18:50.894Z,5.67
2019-04-11T20:21:18.925Z,6.10
2019-04-11T20:23:50.733Z,5.40
2019-04-11T20:26:22.470Z,5.80
2019-04-11T20:28:54.285Z,6.20
2019-04-11T20:31:26.220Z,6.93
2019-04-11T20:33:57.973Z,7.20
2019-04-11T20:36:33.516Z,6.03
2019-04-11T20:39:05.564Z,6.97
2019-04-11T20:41:37.324Z,6.47
2019-04-11T20:44:09.100Z,7.00
2019-04-11T20:46:40.815Z,5.87
2019-04-11T20:49:12.529Z,4.93
2019-04-11T20:51:44.243Z,4.17
2019-04-11T20:54:15.957Z,6.00
2019-04-11T20:56:47.729Z,5.77
2019-04-11T20:59:19.430Z,5.43
2019-04-11T21:01:53.538Z,4.40
2019-04-11T21:04:24.777Z,5.10
2019-04-11T21:06:56.497Z,5.00
2019-04-11T21:09:28.197Z,5.50
2019-04-11T21:11:59.929Z,5.57
2019-04-11T21:14:31.620Z,5.37
2019-04-11T21:17:03.559Z,6.27
2019-04-11T21:19:35.271Z,5.70
2019-04-11T21:22:06.992Z,5.50
2019-04-11T21:24:38.784Z,5.97
2019-04-11T21:27:10.516Z,5.67
2019-04-11T21:29:42.230Z,5.37
2019-04-11T21:32:14.137Z,5.73
2019-04-11T21:34:46.071Z,5.37
2019-04-11T21:37:17.875Z,4.70
2019-04-11T21:39:49.589Z,4.50
2019-04-11T21:42:21.304Z,5.53
2019-04-11T21:44:53.005Z,3.60
2019-04-11T21:47:24.716Z,4.47
2019-04-11T21:49:56.426Z,4.67
2019-04-11T21:52:28.245Z,5.00
2019-04-11T21:54:59.949Z,5.23
2019-04-11T21:57:31.676Z,5.33
2019-04-11T22:00:08.560Z,5.47
2019-04-11T22:02:40.687Z,5.00
2019-04-11T22:05:12.784Z,5.03
2019-04-11T22:07:44.636Z,5.13
2019-04-11T22:10:16.453Z,5.57
2019-04-11T22:12:48.168Z,4.97
2019-04-11T22:15:19.874Z,4.67
2019-04-11T22:17:51.678Z,5.30
2019-04-11T22:20:23.425Z,5.07
2019-04-11T22:22:55.144Z,4.30
2019-04-11T22:25:26.944Z,4.70
2019-04-11T22:27:58.648Z,5.03
2019-04-11T22:30:30.364Z,4.30
2019-04-11T22:33:20.534Z,4.23
2019-04-11T22:35:52.330Z,3.43
2019-04-11T22:38:24.061Z,4.20
2019-04-11T22:40:55.766Z,3.87
2019-04-11T22:43:27.500Z,3.70
2019-04-11T22:45:59.212Z,3.50
2019-04-11T22:48:30.937Z,2.77
2019-04-11T22:51:02.654Z,3.07
2019-04-11T22:53:34.381Z,2.90
2019-04-11T22:56:06.085Z,3.60
2019-04-11T22:58:37.807Z,3.67
2019-04-11T23:01:09.517Z,3.77
2019-04-11T23:03:46.981Z,3.43
2019-04-11T23:06:18.524Z,3.40
2019-04-11T23:08:50.269Z,3.67
2019-04-11T23:11:22.159Z,2.77
2019-04-11T23:13:54.005Z,3.00
2019-04-11T23:16:25.717Z,3.20
2019-04-11T23:18:57.428Z,3.10
2019-04-11T23:21:29.142Z,2.90
2019-04-11T23:24:11.339Z,3.30
2019-04-11T23:26:34.491Z,3.07
2019-04-11T23:29:06.301Z,3.00
2019-04-11T23:31:38.022Z,2.93
2019-04-11T23:34:09.840Z,3.30
2019-04-11T23:36:41.539Z,3.33
2019-04-11T23:39:13.264Z,2.90
2019-04-11T23:41:44.956Z,3.13
2019-04-11T23:44:18.050Z,3.30
2019-04-11T23:46:52.094Z,3.30
2019-04-11T23:49:25.238Z,3.10
2019-04-11T23:51:57.536Z,3.27
2019-04-11T23:54:29.853Z,3.47
2019-04-11T23:57:01.768Z,2.83
2019-04-11T23:59:33.583Z,4.37
